Time;durP1;ratioP1;P1;durP2;ratioP2;P2;SDS_P1;SDS_P2;PMS_P1;PMS_P2;Temp;Humidity;BMP_temperature;BMP_pressure;BME280_temperature;BME280_humidity;BME280_pressure;Samples;Min_cycle;Max_cycle;Signal;HPM_P1;HPM_P2
2023/12/16 00:00:48;;;;;;;4.25;1.17;;;;;;;;;;5049745;28;20528;-66
2023/12/16 00:03:15;;;;;;;5.90;1.20;;;;;;;;;;5048202;28;20474;-67
2023/12/16 00:05:43;;;;;;;3.03;0.85;;;;;;;;;;5048455;28;20060;-66
2023/12/16 00:08:11;;;;;;;7.20;1.20;;;;;;;;;;5032653;28;20048;-66
2023/12/16 00:10:38;;;;;;;6.97;1.73;;;;;;;;;;5049973;28;20874;-67
2023/12/16 00:13:07;;;;;;;9.55;1.13;;;;;;;;;;5048274;28;20488;-68
2023/12/16 00:15:35;;;;;;;4.93;0.98;;;;;;;;;;5046604;28;20083;-67
2023/12/16 00:18:02;;;;;;;7.78;1.05;;;;;;;;;;5061395;28;20071;-66
2023/12/16 00:20:29;;;;;;;10.50;1.58;;;;;;;;;;5050404;28;20509;-68
2023/12/16 00:22:56;;;;;;;10.13;1.42;;;;;;;;;;5048825;28;20041;-66
2023/12/16 00:25:24;;;;;;;11.73;1.23;;;;;;;;;;5050635;28;20049;-67
2023/12/16 00:27:51;;;;;;;9.85;1.40;;;;;;;;;;5049080;28;20060;-67
2023/12/16 00:30:20;;;;;;;4.53;0.90;;;;;;;;;;5050519;28;20195;-67
2023/12/16 00:32:47;;;;;;;7.95;1.30;;;;;;;;;;5032088;28;20124;-66
2023/12/16 00:35:14;;;;;;;7.40;1.25;;;;;;;;;;5055254;28;20053;-66
2023/12/16 00:37:42;;;;;;;11.65;1.38;;;;;;;;;;5035773;28;20108;-67
2023/12/16 00:40:09;;;;;;;8.25;1.50;;;;;;;;;;5059027;28;20419;-67
2023/12/16 00:42:37;;;;;;;7.55;1.23;;;;;;;;;;5048544;28;20096;-67
2023/12/16 00:45:05;;;;;;;11.52;1.30;;;;;;;;;;5045268;28;20049;-67
2023/12/16 00:47:33;;;;;;;6.85;1.60;;;;;;;;;;5031239;28;20527;-67
2023/12/16 00:50:00;;;;;;;9.07;1.88;;;;;;;;;;5051716;28;20480;-67
2023/12/16 00:52:28;;;;;;;8.02;1.35;;;;;;;;;;5037071;28;20040;-67
2023/12/16 00:54:55;;;;;;;6.25;1.35;;;;;;;;;;5027400;28;20511;-67
2023/12/16 00:57:22;;;;;;;7.07;1.70;;;;;;;;;;5057853;28;20380;-67
2023/12/16 00:59:49;;;;;;;7.88;1.50;;;;;;;;;;5044901;28;20049;-68
2023/12/16 01:02:17;;;;;;;11.88;1.83;;;;;;;;;;5049878;28;20489;-68
2023/12/16 01:04:45;;;;;;;8.57;1.85;;;;;;;;;;5051418;28;20056;-67
2023/12/16 01:07:13;;;;;;;6.60;1.40;;;;;;;;;;5047469;28;20092;-66
2023/12/16 01:09:40;;;;;;;4.20;1.08;;;;;;;;;;5053958;28;20057;-66
2023/12/16 01:12:09;;;;;;;8.18;1.20;;;;;;;;;;5032286;28;20056;-67
2023/12/16 01:14:36;;;;;;;10.85;1.67;;;;;;;;;;5027251;28;20048;-67
2023/12/16 01:17:02;;;;;;;7.60;1.45;;;;;;;;;;5029351;28;20052;-67
2023/12/16 01:19:30;;;;;;;12.30;1.85;;;;;;;;;;5032103;28;20049;-67
2023/12/16 01:21:58;;;;;;;7.38;1.20;;;;;;;;;;5042931;28;20504;-67
2023/12/16 01:24:25;;;;;;;11.15;1.55;;;;;;;;;;5052152;28;20056;-66
2023/12/16 01:26:53;;;;;;;12.32;1.50;;;;;;;;;;5044779;28;20052;-67
2023/12/16 01:29:20;;;;;;;9.18;1.45;;;;;;;;;;5031971;28;20051;-66
2023/12/16 01:31:47;;;;;;;11.57;1.88;;;;;;;;;;5032754;28;20053;-69
2023/12/16 01:34:14;;;;;;;9.43;2.20;;;;;;;;;;5052189;28;20052;-68
2023/12/16 01:36:42;;;;;;;7.68;1.30;;;;;;;;;;5059468;28;20260;-70
2023/12/16 01:39:10;;;;;;;9.07;1.08;;;;;;;;;;5047134;28;20408;-67
2023/12/16 01:41:38;;;;;;;8.57;1.35;;;;;;;;;;5053861;28;20048;-67
2023/12/16 01:44:05;;;;;;;6.15;1.13;;;;;;;;;;5051469;28;20057;-68
2023/12/16 01:46:35;;;;;;;6.60;1.15;;;;;;;;;;5055830;28;20139;-66
2023/12/16 01:49:02;;;;;;;7.57;1.00;;;;;;;;;;5050247;28;20049;-67
2023/12/16 01:51:29;;;;;;;6.40;1.40;;;;;;;;;;5050878;28;20049;-66
2023/12/16 01:53:57;;;;;;;6.13;1.08;;;;;;;;;;5051415;28;20075;-66
2023/12/16 01:56:28;;;;;;;9.45;1.30;;;;;;;;;;5040219;28;20095;-67
2023/12/16 01:58:56;;;;;;;11.38;1.42;;;;;;;;;;5053342;28;20419;-67
2023/12/16 02:01:23;;;;;;;6.15;1.17;;;;;;;;;;5063550;28;20056;-67
2023/12/16 02:03:52;;;;;;;8.00;1.30;;;;;;;;;;5050021;28;20052;-67
2023/12/16 02:06:19;;;;;;;17.45;1.38;;;;;;;;;;5051672;28;20480;-68
2023/12/16 02:08:47;;;;;;;8.80;0.98;;;;;;;;;;5033803;28;20088;-66
2023/12/16 02:11:14;;;;;;;10.63;1.40;;;;;;;;;;5062237;28;20055;-66
2023/12/16 02:13:43;;;;;;;10.65;1.52;;;;;;;;;;5050398;28;20076;-67
2023/12/16 02:16:10;;;;;;;7.07;1.25;;;;;;;;;;5018575;28;20060;-67
2023/12/16 02:18:37;;;;;;;5.53;1.17;;;;;;;;;;5043122;28;20106;-67
2023/12/16 02:21:05;;;;;;;6.35;1.30;;;;;;;;;;5055632;28;20064;-66
2023/12/16 02:23:34;;;;;;;7.20;1.17;;;;;;;;;;5024376;28;20053;-66
2023/12/16 02:26:01;;;;;;;10.25;1.13;;;;;;;;;;5051843;28;20045;-68
2023/12/16 02:28:30;;;;;;;6.22;1.35;;;;;;;;;;5047151;28;20045;-66
2023/12/16 02:30:57;;;;;;;6.15;0.90;;;;;;;;;;5056223;28;20163;-67
2023/12/16 02:33:24;;;;;;;11.65;1.10;;;;;;;;;;5055582;28;20044;-66
2023/12/16 02:35:52;;;;;;;13.27;1.70;;;;;;;;;;5056947;28;20152;-68
2023/12/16 02:38:19;;;;;;;12.32;1.85;;;;;;;;;;5037875;28;20056;-68
2023/12/16 02:40:48;;;;;;;12.38;2.03;;;;;;;;;;5055592;28;20056;-66
2023/12/16 02:43:16;;;;;;;11.02;1.33;;;;;;;;;;5043031;28;20132;-66
2023/12/16 02:45:43;;;;;;;10.68;1.80;;;;;;;;;;5050232;28;20500;-66
2023/12/16 02:48:10;;;;;;;14.70;1.20;;;;;;;;;;5061467;28;20127;-66
2023/12/16 02:50:37;;;;;;;7.68;1.30;;;;;;;;;;5050015;28;20060;-67
2023/12/16 02:53:06;;;;;;;11.20;1.50;;;;;;;;;;5051390;28;20044;-68
2023/12/16 02:55:34;;;;;;;8.68;1.45;;;;;;;;;;5053008;28;20124;-66
2023/12/16 02:58:02;;;;;;;10.15;1.58;;;;;;;;;;5035264;28;20049;-67
2023/12/16 03:00:29;;;;;;;11.25;1.55;;;;;;;;;;5054554;28;20056;-66
2023/12/16 03:02:57;;;;;;;10.05;2.10;;;;;;;;;;5033668;28;20432;-66
2023/12/16 03:05:24;;;;;;;7.07;1.20;;;;;;;;;;5049392;28;20488;-66
2023/12/16 03:07:51;;;;;;;11.93;1.20;;;;;;;;;;5052688;28;20136;-66
2023/12/16 03:10:18;;;;;;;13.90;1.45;;;;;;;;;;5047122;28;20068;-67
2023/12/16 03:12:46;;;;;;;14.18;1.67;;;;;;;;;;5044993;28;20132;-67
2023/12/16 03:15:15;;;;;;;9.93;1.52;;;;;;;;;;5050730;28;20491;-67
2023/12/16 03:17:43;;;;;;;14.52;1.48;;;;;;;;;;5030252;28;20049;-66
2023/12/16 03:20:11;;;;;;;12.18;1.42;;;;;;;;;;5055130;28;20063;-67
2023/12/16 03:22:38;;;;;;;12.10;1.88;;;;;;;;;;5050224;28;20048;-68
2023/12/16 03:25:06;;;;;;;11.15;1.80;;;;;;;;;;5050578;28;20056;-67
2023/12/16 03:27:33;;;;;;;8.55;1.48;;;;;;;;;;5055694;28;20057;-67
2023/12/16 03:30:01;;;;;;;14.30;2.17;;;;;;;;;;5034133;28;20052;-68
2023/12/16 03:32:29;;;;;;;7.20;1.50;;;;;;;;;;5029972;28;20091;-67
2023/12/16 03:34:56;;;;;;;8.60;1.85;;;;;;;;;;5054782;28;20044;-66
2023/12/16 03:37:24;;;;;;;12.30;1.48;;;;;;;;;;5033023;28;20063;-66
2023/12/16 03:39:51;;;;;;;10.73;1.63;;;;;;;;;;5032838;28;20056;-66
2023/12/16 03:42:19;;;;;;;11.35;1.35;;;;;;;;;;5051411;28;20056;-67
2023/12/16 03:44:47;;;;;;;14.70;2.10;;;;;;;;;;5029224;28;20492;-66
2023/12/16 03:47:14;;;;;;;13.90;1.65;;;;;;;;;;5049715;28;20488;-67
2023/12/16 03:49:43;;;;;;;10.30;1.70;;;;;;;;;;5042796;28;20518;-66
2023/12/16 03:52:11;;;;;;;14.73;1.75;;;;;;;;;;5052721;28;20057;-67
2023/12/16 03:54:39;;;;;;;10.85;2.00;;;;;;;;;;5046236;28;20123;-68
2023/12/16 03:57:06;;;;;;;13.95;2.28;;;;;;;;;;5055932;28;20057;-66
2023/12/16 03:59:33;;;;;;;18.83;2.45;;;;;;;;;;5049192;28;20057;-67
2023/12/16 04:02:01;;;;;;;12.98;2.00;;;;;;;;;;5048358;28;20048;-67
2023/12/16 04:04:29;;;;;;;15.02;2.03;;;;;;;;;;5049738;28;20049;-66
2023/12/16 04:07:00;;;;;;;11.27;1.80;;;;;;;;;;5049221;28;20060;-67
2023/12/16 04:09:27;;;;;;;21.90;2.80;;;;;;;;;;5046202;28;20056;-67
2023/12/16 04:11:55;;;;;;;10.52;1.45;;;;;;;;;;5038188;28;20045;-66
2023/12/16 04:14:22;;;;;;;16.42;1.98;;;;;;;;;;5020332;28;20059;-66
2023/12/16 04:16:49;;;;;;;23.52;2.10;;;;;;;;;;5049754;28;20711;-68
2023/12/16 04:19:17;;;;;;;17.20;1.95;;;;;;;;;;5030257;28;20061;-67
2023/12/16 04:21:44;;;;;;;23.83;2.30;;;;;;;;;;5048986;28;20075;-66
2023/12/16 04:24:12;;;;;;;20.45;2.55;;;;;;;;;;5049791;28;20089;-66
2023/12/16 04:26:40;;;;;;;14.90;2.10;;;;;;;;;;5027947;28;20056;-66
2023/12/16 04:29:07;;;;;;;17.48;2.08;;;;;;;;;;5048922;28;20052;-66
2023/12/16 04:31:34;;;;;;;12.07;1.65;;;;;;;;;;5044328;28;20110;-66
2023/12/16 04:34:01;;;;;;;12.93;2.22;;;;;;;;;;5044855;28;20053;-67
2023/12/16 04:36:29;;;;;;;15.32;1.70;;;;;;;;;;5054942;28;20054;-66
2023/12/16 04:38:57;;;;;;;22.85;2.85;;;;;;;;;;5044358;28;20053;-67
2023/12/16 04:41:26;;;;;;;18.15;3.67;;;;;;;;;;5056196;28;20049;-66
2023/12/16 04:43:54;;;;;;;16.80;2.38;;;;;;;;;;5053743;28;20411;-69
2023/12/16 04:46:21;;;;;;;19.27;2.92;;;;;;;;;;5049080;28;20150;-67
2023/12/16 04:48:48;;;;;;;13.30;1.88;;;;;;;;;;5050989;28;20045;-67
2023/12/16 04:51:16;;;;;;;19.35;2.70;;;;;;;;;;5045815;28;20398;-68
2023/12/16 04:53:43;;;;;;;28.77;4.43;;;;;;;;;;5048889;28;20514;-67
2023/12/16 04:56:10;;;;;;;24.35;2.53;;;;;;;;;;5025755;28;20045;-66
2023/12/16 04:58:39;;;;;;;13.70;2.28;;;;;;;;;;5050638;28;20432;-67
2023/12/16 05:01:06;;;;;;;17.40;2.13;;;;;;;;;;5042255;28;20405;-67
2023/12/16 05:03:33;;;;;;;17.85;3.10;;;;;;;;;;5050163;28;20065;-67
2023/12/16 05:06:01;;;;;;;14.65;2.20;;;;;;;;;;5047795;28;20049;-69
2023/12/16 05:08:28;;;;;;;17.83;2.00;;;;;;;;;;5042408;28;20045;-66
2023/12/16 05:10:55;;;;;;;20.33;3.72;;;;;;;;;;5049699;28;20053;-66
2023/12/16 05:13:23;;;;;;;18.15;3.10;;;;;;;;;;5049215;28;20059;-66
2023/12/16 05:15:51;;;;;;;19.92;2.47;;;;;;;;;;5058194;28;20052;-66
2023/12/16 05:18:18;;;;;;;30.73;3.10;;;;;;;;;;5044744;28;20434;-67
2023/12/16 05:20:46;;;;;;;16.42;2.60;;;;;;;;;;5052875;28;20499;-67
2023/12/16 05:23:14;;;;;;;27.55;3.50;;;;;;;;;;5049635;28;20053;-70
2023/12/16 05:25:41;;;;;;;27.88;3.60;;;;;;;;;;5053793;28;20048;-66
2023/12/16 05:28:09;;;;;;;24.75;3.17;;;;;;;;;;5036018;28;20088;-66
2023/12/16 05:30:36;;;;;;;18.35;3.22;;;;;;;;;;5035234;28;20053;-67
2023/12/16 05:33:05;;;;;;;16.88;3.60;;;;;;;;;;5051221;28;20056;-67
2023/12/16 05:35:32;;;;;;;31.20;3.45;;;;;;;;;;5053687;28;20052;-68
2023/12/16 05:38:00;;;;;;;19.45;3.63;;;;;;;;;;5052282;28;20046;-66
2023/12/16 05:40:27;;;;;;;19.35;2.85;;;;;;;;;;5054645;28;20484;-67
2023/12/16 05:42:54;;;;;;;21.55;3.67;;;;;;;;;;5054025;28;20052;-66
2023/12/16 05:45:21;;;;;;;23.63;3.53;;;;;;;;;;5049509;28;20055;-67
2023/12/16 05:47:48;;;;;;;19.33;3.95;;;;;;;;;;5035071;28;20099;-67
2023/12/16 05:50:17;;;;;;;24.58;4.13;;;;;;;;;;5035238;28;20076;-68
2023/12/16 05:52:44;;;;;;;29.02;3.83;;;;;;;;;;5051477;28;20455;-66
2023/12/16 05:55:12;;;;;;;18.92;3.65;;;;;;;;;;5041884;28;20061;-67
2023/12/16 05:57:39;;;;;;;20.17;4.90;;;;;;;;;;5045406;28;20060;-67
2023/12/16 06:00:08;;;;;;;22.77;2.92;;;;;;;;;;5054306;28;20166;-68
2023/12/16 06:02:36;;;;;;;25.40;3.92;;;;;;;;;;5050313;28;20049;-66
2023/12/16 06:05:03;;;;;;;22.77;3.85;;;;;;;;;;5049494;28;20111;-67
2023/12/16 06:07:32;;;;;;;27.05;3.72;;;;;;;;;;5053731;28;21224;-66
2023/12/16 06:09:59;;;;;;;20.50;4.03;;;;;;;;;;5052314;28;20080;-66
2023/12/16 06:12:27;;;;;;;29.08;4.75;;;;;;;;;;5033240;28;20531;-66
2023/12/16 06:14:54;;;;;;;21.25;3.60;;;;;;;;;;5035512;28;20053;-67
2023/12/16 06:17:21;;;;;;;29.55;4.45;;;;;;;;;;5039308;28;20069;-67
2023/12/16 06:19:48;;;;;;;23.77;4.13;;;;;;;;;;5046501;28;20084;-67
2023/12/16 06:22:16;;;;;;;20.92;4.07;;;;;;;;;;5054911;28;20045;-70
2023/12/16 06:24:44;;;;;;;26.42;4.00;;;;;;;;;;5030019;28;20053;-66
2023/12/16 06:27:12;;;;;;;35.67;5.22;;;;;;;;;;5048764;28;20053;-66
2023/12/16 06:29:40;;;;;;;28.67;4.30;;;;;;;;;;5034297;28;20064;-67
2023/12/16 06:32:08;;;;;;;29.42;4.72;;;;;;;;;;5028595;28;20053;-66
2023/12/16 06:34:35;;;;;;;30.05;4.72;;;;;;;;;;5058614;28;20045;-67
2023/12/16 06:37:02;;;;;;;39.15;5.00;;;;;;;;;;5060550;28;20435;-67
2023/12/16 06:39:30;;;;;;;40.40;4.82;;;;;;;;;;5059000;28;20049;-69
2023/12/16 06:41:58;;;;;;;30.08;4.57;;;;;;;;;;5054986;28;20045;-66
2023/12/16 06:44:26;;;;;;;35.42;5.57;;;;;;;;;;5058529;28;20048;-67
2023/12/16 06:46:53;;;;;;;29.30;4.95;;;;;;;;;;5045827;28;20046;-68
2023/12/16 06:49:20;;;;;;;33.78;6.35;;;;;;;;;;5052152;28;20063;-66
2023/12/16 06:51:47;;;;;;;23.67;4.57;;;;;;;;;;5054009;28;20049;-66
2023/12/16 06:54:14;;;;;;;34.53;5.10;;;;;;;;;;5025794;28;20073;-66
2023/12/16 06:56:42;;;;;;;37.08;5.03;;;;;;;;;;5050621;28;20381;-69
2023/12/16 06:59:11;;;;;;;27.10;4.50;;;;;;;;;;5046723;28;20046;-66
2023/12/16 07:01:39;;;;;;;29.90;5.13;;;;;;;;;;5048264;28;20052;-67
2023/12/16 07:04:06;;;;;;;30.30;4.53;;;;;;;;;;5049221;28;20106;-66
2023/12/16 07:06:37;;;;;;;29.98;5.60;;;;;;;;;;5041401;28;20049;-67
2023/12/16 07:09:05;;;;;;;27.75;4.65;;;;;;;;;;5029265;28;20065;-72
2023/12/16 07:11:34;;;;;;;31.50;4.40;;;;;;;;;;5050739;28;20052;-71
2023/12/16 07:14:01;;;;;;;34.30;5.05;;;;;;;;;;5047859;28;20045;-71
2023/12/16 07:16:31;;;;;;;37.92;4.95;;;;;;;;;;5030403;28;20858;-72
2023/12/16 07:18:58;;;;;;;30.77;4.97;;;;;;;;;;5044922;28;20121;-72
2023/12/16 07:21:27;;;;;;;36.08;4.97;;;;;;;;;;5033275;28;20060;-71
2023/12/16 07:23:54;;;;;;;32.45;4.85;;;;;;;;;;5047117;28;20041;-72
2023/12/16 07:26:21;;;;;;;38.58;5.78;;;;;;;;;;5052083;28;20049;-72
2023/12/16 07:28:50;;;;;;;25.15;3.83;;;;;;;;;;5044737;28;20477;-72
2023/12/16 07:31:17;;;;;;;36.10;4.95;;;;;;;;;;5023492;28;20404;-72
2023/12/16 07:33:45;;;;;;;37.95;5.35;;;;;;;;;;5041634;28;20041;-72
2023/12/16 07:36:13;;;;;;;33.67;4.85;;;;;;;;;;5031610;28;20832;-72
2023/12/16 07:38:40;;;;;;;31.85;4.57;;;;;;;;;;5049994;28;20056;-72
2023/12/16 07:41:07;;;;;;;24.25;4.53;;;;;;;;;;5043140;28;20069;-72
2023/12/16 07:43:34;;;;;;;35.55;5.22;;;;;;;;;;5043406;28;20052;-72
2023/12/16 07:46:03;;;;;;;33.33;4.78;;;;;;;;;;5041082;28;20063;-72
2023/12/16 07:48:30;;;;;;;24.05;3.60;;;;;;;;;;5030041;28;20586;-72
2023/12/16 07:50:59;;;;;;;40.97;5.30;;;;;;;;;;5042204;28;20046;-72
2023/12/16 07:53:26;;;;;;;29.80;4.75;;;;;;;;;;5046393;28;20041;-72
2023/12/16 07:55:53;;;;;;;33.90;4.10;;;;;;;;;;5032834;28;20377;-72
2023/12/16 07:58:20;;;;;;;36.22;5.03;;;;;;;;;;5027455;28;20054;-72
2023/12/16 08:00:48;;;;;;;33.95;3.75;;;;;;;;;;5047577;28;20455;-72
2023/12/16 08:03:15;;;;;;;35.28;4.07;;;;;;;;;;5053007;28;20479;-72
2023/12/16 08:05:42;;;;;;;24.33;3.97;;;;;;;;;;5034281;28;20071;-72
2023/12/16 08:08:11;;;;;;;41.20;4.53;;;;;;;;;;5042668;28;20480;-72
2023/12/16 08:10:39;;;;;;;29.67;3.72;;;;;;;;;;5048429;28;20134;-72
2023/12/16 08:13:06;;;;;;;38.30;4.72;;;;;;;;;;5032832;28;20136;-72
2023/12/16 08:15:34;;;;;;;29.00;4.13;;;;;;;;;;5046480;28;20350;-71
2023/12/16 08:18:01;;;;;;;35.05;3.88;;;;;;;;;;5042037;28;20040;-72
2023/12/16 08:20:28;;;;;;;21.73;3.85;;;;;;;;;;5044298;28;20146;-72
2023/12/16 08:22:56;;;;;;;28.48;3.67;;;;;;;;;;5030316;28;20060;-73
2023/12/16 08:25:24;;;;;;;30.95;3.40;;;;;;;;;;5050739;28;20049;-72
2023/12/16 08:27:51;;;;;;;24.98;3.80;;;;;;;;;;5051028;28;20051;-72
2023/12/16 08:30:19;;;;;;;36.95;4.03;;;;;;;;;;5044574;28;20369;-72
2023/12/16 08:32:46;;;;;;;30.08;4.10;;;;;;;;;;5053635;28;20063;-73
2023/12/16 08:35:13;;;;;;;30.50;3.83;;;;;;;;;;5052020;28;20044;-71
2023/12/16 08:37:41;;;;;;;21.83;3.67;;;;;;;;;;5046356;28;20389;-72
2023/12/16 08:40:09;;;;;;;26.55;4.05;;;;;;;;;;5049879;28;20056;-71
2023/12/16 08:42:38;;;;;;;23.55;4.13;;;;;;;;;;5047806;28;20419;-72
2023/12/16 08:45:05;;;;;;;30.58;4.28;;;;;;;;;;5046570;28;20183;-72
2023/12/16 08:47:32;;;;;;;29.48;3.47;;;;;;;;;;5054042;28;20057;-72
2023/12/16 08:50:00;;;;;;;29.13;4.10;;;;;;;;;;5047909;28;20043;-72
2023/12/16 08:52:27;;;;;;;28.60;4.38;;;;;;;;;;5052838;28;20060;-72
2023/12/16 08:54:54;;;;;;;36.25;4.00;;;;;;;;;;5028279;28;20505;-71
2023/12/16 08:57:22;;;;;;;32.70;4.50;;;;;;;;;;5047191;28;20052;-72
2023/12/16 08:59:50;;;;;;;41.22;4.13;;;;;;;;;;5052806;28;20527;-72
2023/12/16 09:02:18;;;;;;;36.53;4.43;;;;;;;;;;5058947;28;20052;-72
2023/12/16 09:04:45;;;;;;;40.38;5.35;;;;;;;;;;5050754;28;20053;-72
2023/12/16 09:07:12;;;;;;;44.38;4.78;;;;;;;;;;5048313;28;20381;-72
2023/12/16 09:09:40;;;;;;;31.90;4.32;;;;;;;;;;5041108;28;20063;-72
2023/12/16 09:12:08;;;;;;;33.80;5.20;;;;;;;;;;5023995;28;20072;-72
2023/12/16 09:14:35;;;;;;;22.52;3.60;;;;;;;;;;5046764;28;20048;-72
2023/12/16 09:17:04;;;;;;;33.80;4.43;;;;;;;;;;5058205;28;20323;-72
2023/12/16 09:19:31;;;;;;;25.77;4.38;;;;;;;;;;5047404;28;20056;-72
2023/12/16 09:21:58;;;;;;;39.47;6.32;;;;;;;;;;5047687;28;20045;-72
2023/12/16 09:24:25;;;;;;;28.95;4.30;;;;;;;;;;5029637;28;20053;-72
2023/12/16 09:26:53;;;;;;;37.28;4.50;;;;;;;;;;5055626;28;20044;-72
2023/12/16 09:29:20;;;;;;;36.60;4.63;;;;;;;;;;5044143;28;20048;-72
2023/12/16 09:31:47;;;;;;;30.63;3.90;;;;;;;;;;5051448;28;20045;-72
2023/12/16 09:34:16;;;;;;;31.83;4.47;;;;;;;;;;5052044;28;20130;-72
2023/12/16 09:36:43;;;;;;;32.28;5.38;;;;;;;;;;5053180;28;20122;-72
2023/12/16 09:39:11;;;;;;;35.65;4.63;;;;;;;;;;5048645;28;20045;-72
2023/12/16 09:41:44;;;;;;;30.65;5.25;;;;;;;;;;5047747;28;20099;-72
2023/12/16 09:44:15;;;;;;;25.48;4.78;;;;;;;;;;5038703;28;20432;-72
2023/12/16 09:46:42;;;;;;;40.70;5.80;;;;;;;;;;5046691;28;20037;-72
2023/12/16 09:49:09;;;;;;;30.00;6.30;;;;;;;;;;5047210;28;20045;-72
2023/12/16 09:51:38;;;;;;;32.20;5.90;;;;;;;;;;5043010;28;20060;-72
2023/12/16 09:54:08;;;;;;;32.83;6.60;;;;;;;;;;5049291;28;20128;-72
2023/12/16 09:56:36;;;;;;;36.30;7.47;;;;;;;;;;5036612;28;20057;-72
2023/12/16 09:59:05;;;;;;;25.58;5.72;;;;;;;;;;5057962;28;20053;-72
2023/12/16 10:01:32;;;;;;;20.80;5.70;;;;;;;;;;5054955;28;20511;-72
2023/12/16 10:04:00;;;;;;;34.65;6.63;;;;;;;;;;5049293;28;20052;-72
2023/12/16 10:06:27;;;;;;;38.08;6.10;;;;;;;;;;5049847;28;20052;-71
2023/12/16 10:08:55;;;;;;;32.35;6.28;;;;;;;;;;5052776;28;20049;-71
2023/12/16 10:11:23;;;;;;;34.55;5.80;;;;;;;;;;5051824;28;20094;-72
2023/12/16 10:13:57;;;;;;;39.80;6.97;;;;;;;;;;5059415;28;20165;-72
2023/12/16 10:16:25;;;;;;;44.90;6.57;;;;;;;;;;5039718;28;20049;-72
2023/12/16 10:18:53;;;;;;;24.05;6.47;;;;;;;;;;5064206;28;20040;-72
2023/12/16 10:21:23;;;;;;;37.92;7.35;;;;;;;;;;5052471;28;20044;-73
2023/12/16 10:23:51;;;;;;;38.65;7.43;;;;;;;;;;5053150;28;20101;-72
2023/12/16 10:26:19;;;;;;;23.83;7.07;;;;;;;;;;5049016;28;20056;-72
2023/12/16 10:28:47;;;;;;;32.55;7.35;;;;;;;;;;5046950;28;20075;-72
2023/12/16 10:31:15;;;;;;;48.28;8.82;;;;;;;;;;5034306;28;20110;-71
2023/12/16 10:33:45;;;;;;;39.28;8.55;;;;;;;;;;5055082;28;20084;-72
2023/12/16 10:36:13;;;;;;;33.08;7.72;;;;;;;;;;5058199;28;20389;-72
2023/12/16 10:38:40;;;;;;;30.05;7.88;;;;;;;;;;5051494;28;20407;-72
2023/12/16 10:41:08;;;;;;;32.08;7.28;;;;;;;;;;5055770;28;20133;-72
2023/12/16 10:43:37;;;;;;;30.15;7.25;;;;;;;;;;5052828;28;20060;-72
2023/12/16 10:46:05;;;;;;;36.78;10.43;;;;;;;;;;5056105;28;20059;-72
2023/12/16 10:48:34;;;;;;;37.67;7.70;;;;;;;;;;5050802;28;20518;-72
2023/12/16 10:51:02;;;;;;;32.03;7.95;;;;;;;;;;5053778;28;20048;-72
2023/12/16 10:53:38;;;;;;;30.27;7.82;;;;;;;;;;5035159;28;20118;-71
2023/12/16 10:56:11;;;;;;;38.10;7.25;;;;;;;;;;5050858;28;20263;-72
2023/12/16 10:58:43;;;;;;;32.25;8.73;;;;;;;;;;5027769;28;20053;-72
2023/12/16 11:01:15;;;;;;;34.90;7.60;;;;;;;;;;5053672;28;20045;-72
2023/12/16 11:03:44;;;;;;;31.92;7.95;;;;;;;;;;5060762;28;20049;-72
2023/12/16 11:06:13;;;;;;;26.70;7.05;;;;;;;;;;5052827;28;20045;-72
2023/12/16 11:08:41;;;;;;;23.08;6.60;;;;;;;;;;5067363;28;20266;-72
2023/12/16 11:11:08;;;;;;;28.52;7.18;;;;;;;;;;5058518;28;20882;-72
2023/12/16 11:13:36;;;;;;;27.08;8.43;;;;;;;;;;5046991;28;20080;-71
2023/12/16 11:16:08;;;;;;;32.85;7.32;;;;;;;;;;5049049;28;20045;-72
2023/12/16 11:18:36;;;;;;;22.77;7.18;;;;;;;;;;5057110;28;20049;-72
2023/12/16 11:21:07;;;;;;;34.03;9.23;;;;;;;;;;5052242;28;20048;-72
2023/12/16 11:23:34;;;;;;;29.13;8.30;;;;;;;;;;5051834;28;20063;-72
2023/12/16 11:26:02;;;;;;;25.52;6.63;;;;;;;;;;5051641;28;20037;-72
2023/12/16 11:28:30;;;;;;;27.42;7.13;;;;;;;;;;5051093;28;20044;-72
2023/12/16 11:30:58;;;;;;;22.75;7.07;;;;;;;;;;5030391;28;20168;-72
2023/12/16 11:33:42;;;;;;;21.15;6.35;;;;;;;;;;5047006;28;20040;-72
2023/12/16 11:36:10;;;;;;;17.65;6.40;;;;;;;;;;5049604;28;20037;-72
2023/12/16 11:38:38;;;;;;;19.13;6.47;;;;;;;;;;5057516;28;20061;-72
2023/12/16 11:41:06;;;;;;;23.50;6.28;;;;;;;;;;5050991;28;20139;-72
2023/12/16 11:43:49;;;;;;;26.95;6.35;;;;;;;;;;5045784;28;20123;-72
2023/12/16 11:46:16;;;;;;;;;;;;;;;;;;5045947;28;20130;-72
2023/12/16 11:48:45;;;;;;;17.13;5.53;;;;;;;;;;5033132;28;20004;-72
2023/12/16 11:51:12;;;;;;;22.92;5.88;;;;;;;;;;5044081;28;20061;-72
2023/12/16 11:53:40;;;;;;;19.25;5.80;;;;;;;;;;5050370;28;20068;-72
2023/12/16 11:56:07;;;;;;;24.45;5.60;;;;;;;;;;5034435;28;20067;-72
2023/12/16 11:58:35;;;;;;;16.73;5.18;;;;;;;;;;5042131;28;20055;-72
2023/12/16 12:01:02;;;;;;;28.08;5.07;;;;;;;;;;5055345;28;20053;-72
2023/12/16 12:03:29;;;;;;;22.33;5.80;;;;;;;;;;5058933;28;20075;-72
2023/12/16 12:05:58;;;;;;;25.20;5.03;;;;;;;;;;5040506;28;20049;-72
2023/12/16 12:08:26;;;;;;;29.42;5.32;;;;;;;;;;5051880;28;20056;-72
2023/12/16 12:10:53;;;;;;;23.05;5.30;;;;;;;;;;5050747;28;20061;-72
2023/12/16 12:13:20;;;;;;;20.75;5.63;;;;;;;;;;5028265;28;20055;-72
2023/12/16 12:15:47;;;;;;;21.40;5.18;;;;;;;;;;5054729;28;20492;-72
2023/12/16 12:18:15;;;;;;;22.35;5.22;;;;;;;;;;5059469;28;20060;-72
2023/12/16 12:20:42;;;;;;;21.25;5.20;;;;;;;;;;5053515;28;20045;-71
2023/12/16 12:23:11;;;;;;;23.75;4.57;;;;;;;;;;5048286;28;20064;-72
2023/12/16 12:25:38;;;;;;;21.20;5.32;;;;;;;;;;5046140;28;20164;-73
2023/12/16 12:28:09;;;;;;;14.88;4.55;;;;;;;;;;5046980;28;20046;-72
2023/12/16 12:30:37;;;;;;;15.18;4.60;;;;;;;;;;5048436;28;20056;-72
2023/12/16 12:33:04;;;;;;;14.60;4.28;;;;;;;;;;5046449;28;20056;-72
2023/12/16 12:35:32;;;;;;;11.32;3.65;;;;;;;;;;5051500;28;20049;-72
2023/12/16 12:37:59;;;;;;;14.60;4.18;;;;;;;;;;5046060;28;20072;-72
2023/12/16 12:40:28;;;;;;;18.75;5.20;;;;;;;;;;5053090;28;20102;-72
2023/12/16 12:42:56;;;;;;;15.57;4.38;;;;;;;;;;5029166;28;20504;-72
2023/12/16 12:45:27;;;;;;;11.07;3.33;;;;;;;;;;5027747;28;20493;-72
2023/12/16 12:47:54;;;;;;;13.77;3.92;;;;;;;;;;5048181;28;20125;-71
2023/12/16 12:50:22;;;;;;;18.15;3.55;;;;;;;;;;5054758;28;20055;-72
2023/12/16 12:52:50;;;;;;;12.70;3.45;;;;;;;;;;5050370;28;20045;-72
2023/12/16 12:55:18;;;;;;;13.13;3.40;;;;;;;;;;5055827;28;20048;-72
2023/12/16 12:57:47;;;;;;;18.88;4.80;;;;;;;;;;5053742;28;20558;-72
2023/12/16 13:00:17;;;;;;;11.75;3.70;;;;;;;;;;5049251;28;20045;-72
2023/12/16 13:02:44;;;;;;;15.15;3.53;;;;;;;;;;5049263;28;20049;-72
2023/12/16 13:05:11;;;;;;;14.73;4.05;;;;;;;;;;5044016;28;20121;-72
2023/12/16 13:07:39;;;;;;;13.45;4.10;;;;;;;;;;5043508;28;20056;-72
2023/12/16 13:10:07;;;;;;;14.20;4.28;;;;;;;;;;5051787;28;20056;-72
2023/12/16 13:12:34;;;;;;;11.90;3.78;;;;;;;;;;5025103;28;20087;-72
2023/12/16 13:15:03;;;;;;;13.82;4.00;;;;;;;;;;5024783;28;20135;-72
2023/12/16 13:17:30;;;;;;;12.95;4.35;;;;;;;;;;5052682;28;20045;-73
2023/12/16 13:19:57;;;;;;;13.90;3.85;;;;;;;;;;5047149;28;20055;-72
2023/12/16 13:22:24;;;;;;;14.13;4.00;;;;;;;;;;5043950;28;20049;-71
2023/12/16 13:24:52;;;;;;;15.95;4.05;;;;;;;;;;5063726;28;20471;-72
2023/12/16 13:27:19;;;;;;;13.25;4.53;;;;;;;;;;5034245;28;20049;-72
2023/12/16 13:29:46;;;;;;;20.60;3.80;;;;;;;;;;5057557;28;20079;-72
2023/12/16 13:32:15;;;;;;;21.85;4.70;;;;;;;;;;5061650;28;20059;-72
2023/12/16 13:34:42;;;;;;;14.75;3.55;;;;;;;;;;5057530;28;20048;-72
2023/12/16 13:37:10;;;;;;;16.05;4.18;;;;;;;;;;5051071;28;20396;-72
2023/12/16 13:39:37;;;;;;;14.15;4.05;;;;;;;;;;5058385;28;20048;-72
2023/12/16 13:42:05;;;;;;;13.73;3.63;;;;;;;;;;5059063;28;20459;-72
2023/12/16 13:44:32;;;;;;;13.05;4.07;;;;;;;;;;5046618;28;20060;-72
2023/12/16 13:47:00;;;;;;;14.48;3.53;;;;;;;;;;5055760;28;20047;-72
2023/12/16 13:49:28;;;;;;;13.52;4.18;;;;;;;;;;5051839;28;20052;-72
2023/12/16 13:51:55;;;;;;;11.30;3.83;;;;;;;;;;5024342;28;20060;-72
2023/12/16 13:54:23;;;;;;;16.23;3.63;;;;;;;;;;5052614;28;20514;-72
2023/12/16 13:56:50;;;;;;;17.52;4.65;;;;;;;;;;5052270;28;20045;-72
2023/12/16 13:59:17;;;;;;;13.27;3.97;;;;;;;;;;5046226;28;20061;-72
2023/12/16 14:01:44;;;;;;;17.33;3.47;;;;;;;;;;5039179;28;20053;-72
2023/12/16 14:04:12;;;;;;;9.55;3.63;;;;;;;;;;5038638;28;20052;-72
2023/12/16 14:06:40;;;;;;;24.33;4.35;;;;;;;;;;5058024;28;20087;-72
2023/12/16 14:09:08;;;;;;;15.07;3.35;;;;;;;;;;5060748;28;20061;-72
2023/12/16 14:11:35;;;;;;;14.85;3.97;;;;;;;;;;5060014;28;20139;-72
2023/12/16 14:14:02;;;;;;;11.73;3.92;;;;;;;;;;5037319;28;20045;-72
2023/12/16 14:16:30;;;;;;;9.70;3.17;;;;;;;;;;5042934;28;20041;-72
2023/12/16 14:18:57;;;;;;;10.68;3.65;;;;;;;;;;5060650;28;20071;-72
2023/12/16 14:21:25;;;;;;;13.93;4.47;;;;;;;;;;5051102;28;20404;-72
2023/12/16 14:23:53;;;;;;;14.75;3.33;;;;;;;;;;5051965;28;20041;-72
2023/12/16 14:26:20;;;;;;;11.70;3.53;;;;;;;;;;5044689;28;20060;-72
2023/12/16 14:28:48;;;;;;;10.05;3.10;;;;;;;;;;5049258;28;20504;-72
2023/12/16 14:31:15;;;;;;;14.90;3.40;;;;;;;;;;5036448;28;20061;-73
2023/12/16 14:33:42;;;;;;;16.45;3.55;;;;;;;;;;5045389;28;20047;-72
2023/12/16 14:36:10;;;;;;;9.27;3.03;;;;;;;;;;5039957;28;20401;-72